createdAt,value
2019-03-23T00:02:07.048Z,42.80
2019-03-23T00:04:44.446Z,46.67
2019-03-23T00:07:22.087Z,45.53
2019-03-23T00:09:59.508Z,46.13
2019-03-23T00:12:36.845Z,47.93
2019-03-23T00:15:14.328Z,45.53
2019-03-23T00:17:51.683Z,44.23
2019-03-23T00:20:30.389Z,42.80
2019-03-23T00:23:07.932Z,46.90
2019-03-23T00:25:45.347Z,44.93
2019-03-23T00:28:22.800Z,47.00
2019-03-23T00:31:00.142Z,49.23
2019-03-23T00:33:37.520Z,50.27
2019-03-23T00:36:14.924Z,50.07
2019-03-23T00:38:52.303Z,47.70
2019-03-23T00:41:29.677Z,47.27
2019-03-23T00:44:07.546Z,48.57
2019-03-23T00:46:45.027Z,44.87
2019-03-23T00:49:22.394Z,45.27
2019-03-23T00:51:59.619Z,43.50
2019-03-23T00:54:36.964Z,46.53
2019-03-23T00:57:14.321Z,47.23
2019-03-23T00:59:51.758Z,47.17
2019-03-23T01:02:29.156Z,48.57
2019-03-23T01:05:07.564Z,48.57
2019-03-23T01:07:44.927Z,45.30
2019-03-23T01:10:22.302Z,43.00
2019-03-23T01:12:59.790Z,42.63
2019-03-23T01:15:37.114Z,42.00
2019-03-23T01:18:14.715Z,42.73
2019-03-23T01:20:52.638Z,43.67
2019-03-23T01:23:29.968Z,38.97
2019-03-23T01:26:07.436Z,39.03
2019-03-23T01:28:44.932Z,40.83
2019-03-23T01:31:22.641Z,38.57
2019-03-23T01:33:59.786Z,37.87
2019-03-23T01:36:37.104Z,38.57
2019-03-23T01:39:14.416Z,36.67
2019-03-23T01:41:51.805Z,34.20
2019-03-23T01:44:29.215Z,39.93
2019-03-23T01:47:06.507Z,36.37
2019-03-23T01:49:43.912Z,34.87
2019-03-23T01:52:21.561Z,34.60
2019-03-23T01:54:59.300Z,37.07
2019-03-23T01:57:36.692Z,38.33
2019-03-23T02:00:14.260Z,37.60
2019-03-23T02:02:51.665Z,39.33
2019-03-23T02:05:29.081Z,37.07
2019-03-23T02:08:06.504Z,35.77
2019-03-23T02:10:43.867Z,36.70
2019-03-23T02:13:21.316Z,36.77
2019-03-23T02:15:58.603Z,35.83
2019-03-23T02:18:36.144Z,37.50
2019-03-23T02:21:13.576Z,37.47
2019-03-23T02:23:52.699Z,37.77
2019-03-23T02:26:33.080Z,37.50
2019-03-23T02:29:10.448Z,37.73
2019-03-23T02:31:47.948Z,41.83
2019-03-23T02:34:25.319Z,36.87
2019-03-23T02:37:02.863Z,37.80
2019-03-23T02:39:40.388Z,37.80
2019-03-23T02:42:17.710Z,38.73
2019-03-23T02:44:55.077Z,39.17
2019-03-23T02:47:32.421Z,39.53
2019-03-23T02:50:10.446Z,39.27
2019-03-23T02:52:47.857Z,34.47
2019-03-23T02:55:25.188Z,35.90
2019-03-23T02:58:02.559Z,35.77
2019-03-23T03:00:39.898Z,37.97
2019-03-23T03:03:17.397Z,38.10
2019-03-23T03:05:54.729Z,40.97
2019-03-23T03:08:32.148Z,40.40
2019-03-23T03:11:09.529Z,38.77
2019-03-23T03:13:47.093Z,39.37
2019-03-23T03:16:24.324Z,39.03
2019-03-23T03:19:01.762Z,37.83
2019-03-23T03:21:39.162Z,36.23
2019-03-23T03:24:16.706Z,39.43
2019-03-23T03:26:54.147Z,37.30
2019-03-23T03:29:31.507Z,38.63
2019-03-23T03:32:08.975Z,35.67
2019-03-23T03:34:46.298Z,35.13
2019-03-23T03:37:23.719Z,35.90
2019-03-23T03:40:01.065Z,39.03
2019-03-23T03:42:38.484Z,39.77
2019-03-23T03:45:25.582Z,43.30
2019-03-23T03:48:03.024Z,42.43
2019-03-23T03:50:41.286Z,38.47
2019-03-23T03:53:20.331Z,38.43
2019-03-23T03:55:57.619Z,36.93
2019-03-23T03:58:35.077Z,39.37
2019-03-23T04:01:12.301Z,37.97
2019-03-23T04:03:49.838Z,38.23
2019-03-23T04:06:27.176Z,33.80
2019-03-23T04:09:06.475Z,34.83
2019-03-23T04:11:43.738Z,36.90
2019-03-23T04:14:21.164Z,34.60
2019-03-23T04:16:59.071Z,35.17
2019-03-23T04:19:36.535Z,33.70
2019-03-23T04:22:14.001Z,33.20
2019-03-23T04:24:51.422Z,31.37
2019-03-23T04:27:28.855Z,29.03
2019-03-23T04:30:07.592Z,31.60
2019-03-23T04:32:44.950Z,29.13
2019-03-23T04:35:22.584Z,30.17
2019-03-23T04:37:59.952Z,29.40
2019-03-23T04:40:37.374Z,29.33
2019-03-23T04:43:14.788Z,30.07
2019-03-23T04:45:52.172Z,32.30
2019-03-23T04:48:29.566Z,32.03
2019-03-23T04:51:07.044Z,36.30
2019-03-23T04:53:44.357Z,35.90
2019-03-23T04:56:21.765Z,35.73
2019-03-23T04:58:59.226Z,36.47
2019-03-23T05:01:36.717Z,38.53
2019-03-23T05:04:14.056Z,34.47
2019-03-23T05:06:51.382Z,37.00
2019-03-23T05:09:28.737Z,36.63
2019-03-23T05:12:06.073Z,31.67
2019-03-23T05:14:43.569Z,34.53
2019-03-23T05:17:27.066Z,32.33
2019-03-23T05:20:09.341Z,34.77
2019-03-23T05:22:46.724Z,35.67
2019-03-23T05:25:26.112Z,34.77
2019-03-23T05:28:04.996Z,37.67
2019-03-23T05:30:42.394Z,35.40
2019-03-23T05:33:19.626Z,35.80
2019-03-23T05:35:56.947Z,34.73
2019-03-23T05:38:43.983Z,34.67
2019-03-23T05:41:13.171Z,31.97
2019-03-23T05:43:50.340Z,31.87
2019-03-23T05:46:27.700Z,33.13
2019-03-23T05:49:04.992Z,34.30
2019-03-23T05:51:42.256Z,36.10
2019-03-23T05:54:19.440Z,35.47
2019-03-23T05:56:56.601Z,35.13
2019-03-23T05:59:33.880Z,37.67
2019-03-23T06:02:11.357Z,37.97
2019-03-23T06:04:49.012Z,39.63
2019-03-23T06:07:26.331Z,40.03
2019-03-23T06:10:05.076Z,42.07
2019-03-23T06:12:42.443Z,42.10
2019-03-23T06:15:19.929Z,39.40
2019-03-23T06:17:57.159Z,41.27
2019-03-23T06:20:34.687Z,40.53
2019-03-23T06:23:11.914Z,44.00
2019-03-23T06:25:49.270Z,48.73
2019-03-23T06:28:26.580Z,45.43
2019-03-23T06:31:03.837Z,48.33
2019-03-23T06:33:41.016Z,51.27
2019-03-23T06:36:18.293Z,48.30
2019-03-23T06:39:05.153Z,49.50
2019-03-23T06:41:34.558Z,49.07
2019-03-23T06:44:11.880Z,52.23
2019-03-23T06:46:49.209Z,54.20
2019-03-23T06:49:26.664Z,57.73
2019-03-23T06:52:03.979Z,57.23
2019-03-23T06:54:41.292Z,59.83
2019-03-23T06:57:18.712Z,61.03
2019-03-23T06:59:55.886Z,56.03
2019-03-23T07:02:33.248Z,55.40
2019-03-23T07:05:10.906Z,53.60
2019-03-23T07:07:48.924Z,56.43
2019-03-23T07:10:27.010Z,55.83
2019-03-23T07:13:05.950Z,53.33
2019-03-23T07:15:43.296Z,55.13
2019-03-23T07:18:20.652Z,51.23
2019-03-23T07:20:57.890Z,56.70
2019-03-23T07:23:35.223Z,56.47
2019-03-23T07:26:12.534Z,52.13
2019-03-23T07:28:49.847Z,52.83
2019-03-23T07:31:27.242Z,52.10
2019-03-23T07:34:06.171Z,50.80
2019-03-23T07:36:43.654Z,48.47
2019-03-23T07:39:27.278Z,52.03
2019-03-23T07:42:00.225Z,48.77
2019-03-23T07:44:37.569Z,50.00
2019-03-23T07:47:15.450Z,50.93
2019-03-23T07:49:52.840Z,47.73
2019-03-23T07:52:30.271Z,47.27
2019-03-23T07:55:12.913Z,47.50
2019-03-23T07:57:50.296Z,44.30
2019-03-23T08:00:31.232Z,48.80
2019-03-23T08:03:10.822Z,48.40
2019-03-23T08:05:48.242Z,48.13
2019-03-23T08:08:25.652Z,48.60
2019-03-23T08:11:03.031Z,47.03
2019-03-23T08:13:40.807Z,48.45
2019-03-23T08:16:18.732Z,48.30
2019-03-23T08:18:56.612Z,51.48
2019-03-23T08:21:34.525Z,46.98
2019-03-23T08:24:12.434Z,47.58
2019-03-23T08:26:50.336Z,47.13
2019-03-23T08:29:28.214Z,49.58
2019-03-23T08:32:06.052Z,47.55
2019-03-23T08:34:43.964Z,47.62
2019-03-23T08:37:21.790Z,46.83
2019-03-23T08:39:59.633Z,49.77
2019-03-23T08:42:37.619Z,47.08
2019-03-23T08:45:15.702Z,45.90
2019-03-23T08:47:53.815Z,47.40
2019-03-23T08:50:31.744Z,47.45
2019-03-23T08:53:09.713Z,47.95
2019-03-23T08:55:47.607Z,47.10
2019-03-23T08:58:30.380Z,46.18
2019-03-23T09:01:08.170Z,48.48
2019-03-23T09:03:52.432Z,47.58
2019-03-23T09:06:25.615Z,45.52
2019-03-23T09:09:04.984Z,47.75
2019-03-23T09:11:42.773Z,45.48
2019-03-23T09:14:20.614Z,44.70
2019-03-23T09:16:58.519Z,44.55
2019-03-23T09:19:36.411Z,47.15
2019-03-23T09:22:18.283Z,48.00
2019-03-23T09:24:57.260Z,46.60
2019-03-23T09:27:35.228Z,45.10
2019-03-23T09:30:13.337Z,46.55
2019-03-23T09:32:51.087Z,44.23
2019-03-23T09:35:29.035Z,42.03
2019-03-23T09:38:06.929Z,43.38
2019-03-23T09:40:44.844Z,43.78
2019-03-23T09:43:22.679Z,44.03
2019-03-23T09:46:00.611Z,42.93
2019-03-23T09:48:38.465Z,42.75
2019-03-23T09:51:16.378Z,40.95
2019-03-23T09:53:54.253Z,44.15
2019-03-23T09:56:32.604Z,43.75
2019-03-23T09:59:10.462Z,41.35
2019-03-23T10:01:48.318Z,45.92
2019-03-23T10:04:26.204Z,41.85
2019-03-23T10:07:03.994Z,42.70
2019-03-23T10:09:41.896Z,43.42
2019-03-23T10:12:19.844Z,40.75
2019-03-23T10:14:57.612Z,39.50
2019-03-23T10:17:35.637Z,39.73
2019-03-23T10:20:13.448Z,40.25
2019-03-23T10:22:51.355Z,40.70
2019-03-23T10:25:29.310Z,37.40
2019-03-23T10:28:07.212Z,38.95
2019-03-23T10:30:45.114Z,38.02
2019-03-23T10:33:33.601Z,38.83
2019-03-23T10:36:12.346Z,38.80
2019-03-23T10:38:50.320Z,39.75
2019-03-23T10:41:28.109Z,38.02
2019-03-23T10:44:06.107Z,37.08
2019-03-23T10:46:43.959Z,36.35
2019-03-23T10:49:24.066Z,38.35
2019-03-23T10:52:03.546Z,36.63
2019-03-23T10:54:41.472Z,36.93
2019-03-23T10:57:19.346Z,37.70
2019-03-23T10:59:57.508Z,36.05
2019-03-23T11:02:36.333Z,33.55
2019-03-23T11:05:17.678Z,32.93
2019-03-23T11:07:58.185Z,32.75
2019-03-23T11:10:42.177Z,35.38
2019-03-23T11:13:21.216Z,33.98
2019-03-23T11:16:12.601Z,30.77
2019-03-23T11:18:53.305Z,29.15
2019-03-23T11:21:31.157Z,32.70
2019-03-23T11:24:09.113Z,29.10
2019-03-23T11:26:46.966Z,32.75
2019-03-23T11:29:27.245Z,32.60
2019-03-23T11:32:05.175Z,29.12
2019-03-23T11:34:43.126Z,32.08
2019-03-23T11:37:21.076Z,31.60
2019-03-23T11:39:59.073Z,30.55
2019-03-23T11:42:37.333Z,29.72
2019-03-23T11:45:15.261Z,27.90
2019-03-23T11:47:53.043Z,27.35
2019-03-23T11:50:30.996Z,24.87
2019-03-23T11:53:08.712Z,26.17
2019-03-23T11:55:46.660Z,25.88
2019-03-23T11:58:24.554Z,26.60
2019-03-23T12:01:02.481Z,26.37
2019-03-23T12:03:40.307Z,25.82
2019-03-23T12:06:18.429Z,29.65
2019-03-23T12:08:56.106Z,27.22
2019-03-23T12:11:34.037Z,29.12
2019-03-23T12:14:11.785Z,25.60
2019-03-23T12:16:49.731Z,25.00
2019-03-23T12:19:27.594Z,24.87
2019-03-23T12:22:06.613Z,24.32
2019-03-23T12:24:44.520Z,22.00
2019-03-23T12:27:24.683Z,19.15
2019-03-23T12:30:07.004Z,17.52
2019-03-23T12:32:41.429Z,18.95
2019-03-23T12:35:19.276Z,17.40
2019-03-23T12:37:57.212Z,16.65
2019-03-23T12:40:36.487Z,11.75
2019-03-23T12:43:14.625Z,11.70
2019-03-23T12:45:52.525Z,11.63
2019-03-23T12:48:30.349Z,12.88
2019-03-23T12:51:08.282Z,14.40
2019-03-23T12:53:46.161Z,17.12
2019-03-23T12:56:24.104Z,15.00
2019-03-23T12:59:01.994Z,13.50
2019-03-23T13:01:39.854Z,13.50
2019-03-23T13:04:17.719Z,13.50
2019-03-23T13:06:55.516Z,13.32
2019-03-23T13:09:33.347Z,14.68
2019-03-23T13:12:11.257Z,14.20
2019-03-23T13:14:49.085Z,14.38
2019-03-23T13:17:26.884Z,13.55
2019-03-23T13:20:05.440Z,14.15
2019-03-23T13:22:43.374Z,19.60
2019-03-23T13:25:20.985Z,15.72
2019-03-23T13:27:58.843Z,15.53
2019-03-23T13:30:36.705Z,15.40
2019-03-23T13:33:14.487Z,16.07
2019-03-23T13:35:52.398Z,14.70
2019-03-23T13:38:30.360Z,13.93
2019-03-23T13:41:08.300Z,13.93
2019-03-23T13:43:46.378Z,13.43
2019-03-23T13:46:24.155Z,13.13
2019-03-23T13:49:02.019Z,12.47
2019-03-23T13:51:39.781Z,12.78
2019-03-23T13:54:17.710Z,14.65
2019-03-23T13:56:55.531Z,15.30
2019-03-23T13:59:33.482Z,14.65
2019-03-23T14:02:11.379Z,14.23
2019-03-23T14:04:50.292Z,14.65
2019-03-23T14:07:28.263Z,13.60
2019-03-23T14:10:06.242Z,16.02
2019-03-23T14:12:44.150Z,13.98
2019-03-23T14:15:22.072Z,13.58
2019-03-23T14:17:59.963Z,14.20
2019-03-23T14:20:38.816Z,15.08
2019-03-23T14:23:16.688Z,14.58
2019-03-23T14:25:54.683Z,15.60
2019-03-23T14:28:32.585Z,14.75
2019-03-23T14:31:10.571Z,14.30
2019-03-23T14:33:48.739Z,14.68
2019-03-23T14:36:27.929Z,16.80
2019-03-23T14:39:07.625Z,13.72
2019-03-23T14:41:46.353Z,13.45
2019-03-23T14:44:24.191Z,14.68
2019-03-23T14:47:03.088Z,14.18
2019-03-23T14:49:40.921Z,15.83
2019-03-23T14:52:18.837Z,13.65
2019-03-23T14:54:56.708Z,13.62
2019-03-23T14:57:34.590Z,12.85
2019-03-23T15:00:12.882Z,12.98
2019-03-23T15:02:50.833Z,15.80
2019-03-23T15:05:28.796Z,17.07
2019-03-23T15:08:10.039Z,13.03
2019-03-23T15:10:53.208Z,14.58
2019-03-23T15:13:31.153Z,13.48
2019-03-23T15:16:09.136Z,16.37
2019-03-23T15:18:47.049Z,15.90
2019-03-23T15:21:24.957Z,15.80
2019-03-23T15:24:02.844Z,15.32
2019-03-23T15:26:40.731Z,14.75
2019-03-23T15:29:18.610Z,14.33
2019-03-23T15:31:56.488Z,15.60
2019-03-23T15:34:34.175Z,14.38
2019-03-23T15:39:53.672Z,13.50
2019-03-23T15:42:31.636Z,15.15
2019-03-23T15:45:09.964Z,14.00
2019-03-23T15:47:48.055Z,15.30
2019-03-23T15:50:26.032Z,14.47
2019-03-23T15:53:04.102Z,18.20
2019-03-23T15:55:41.997Z,18.37
2019-03-23T15:58:19.785Z,16.07
2019-03-23T16:00:57.950Z,17.62
2019-03-23T16:03:35.829Z,15.53
2019-03-23T16:06:13.629Z,17.15
2019-03-23T16:08:51.169Z,18.47
2019-03-23T16:11:29.048Z,17.57
2019-03-23T16:14:06.950Z,18.07
2019-03-23T16:16:44.909Z,19.32
2019-03-23T16:19:22.767Z,17.98
2019-03-23T16:22:00.664Z,18.25
2019-03-23T16:24:38.602Z,20.85
2019-03-23T16:27:16.484Z,20.95
2019-03-23T16:29:54.405Z,21.07
2019-03-23T16:32:32.157Z,20.88
2019-03-23T16:35:10.092Z,21.97
2019-03-23T16:37:48.176Z,24.07
2019-03-23T16:40:26.520Z,23.02
2019-03-23T16:43:06.267Z,20.92
2019-03-23T16:45:46.459Z,35.28
2019-03-23T16:48:24.432Z,25.80
2019-03-23T16:51:09.851Z,23.35
2019-03-23T16:53:47.706Z,25.77
2019-03-23T16:56:25.686Z,31.33
2019-03-23T16:59:03.543Z,27.82
2019-03-23T17:01:41.464Z,29.12
2019-03-23T17:04:19.769Z,28.98
2019-03-23T17:06:57.698Z,29.48
2019-03-23T17:09:35.488Z,72.27
2019-03-23T17:12:13.416Z,61.88
2019-03-23T17:14:51.231Z,41.63
2019-03-23T17:17:29.165Z,36.35
2019-03-23T17:20:06.960Z,37.08
2019-03-23T17:22:44.845Z,54.73
2019-03-23T17:25:22.765Z,58.02
2019-03-23T17:28:00.758Z,61.48
2019-03-23T17:30:38.762Z,58.42
2019-03-23T17:33:17.142Z,56.23
2019-03-23T17:35:58.663Z,58.63
2019-03-23T17:38:36.550Z,53.73
2019-03-23T17:41:14.519Z,58.10
2019-03-23T17:43:52.462Z,61.90
2019-03-23T17:46:30.364Z,63.70
2019-03-23T17:49:08.329Z,55.40
2019-03-23T17:51:46.244Z,51.37
2019-03-23T17:54:24.169Z,46.75
2019-03-23T17:57:02.093Z,41.40
2019-03-23T17:59:39.997Z,44.63
2019-03-23T18:02:17.318Z,55.73
2019-03-23T18:04:55.261Z,64.87
2019-03-23T18:07:33.129Z,64.50
2019-03-23T18:10:11.135Z,66.75
2019-03-23T18:12:48.493Z,60.77
2019-03-23T18:15:28.730Z,59.77
2019-03-23T18:18:06.598Z,61.25
2019-03-23T18:20:43.967Z,56.77
2019-03-23T18:23:21.403Z,63.20
2019-03-23T18:25:58.754Z,62.23
2019-03-23T18:28:36.925Z,72.78
2019-03-23T18:31:14.293Z,73.27
2019-03-23T18:33:51.611Z,71.97
2019-03-23T18:36:29.129Z,73.63
2019-03-23T18:39:06.428Z,80.30
2019-03-23T18:41:43.717Z,70.00
2019-03-23T18:44:21.063Z,73.20
2019-03-23T18:46:58.478Z,63.07
2019-03-23T18:49:35.690Z,71.20
2019-03-23T18:52:13.038Z,66.37
2019-03-23T18:54:50.442Z,64.00
2019-03-23T18:57:29.453Z,63.47
2019-03-23T19:00:07.555Z,59.80
2019-03-23T19:02:44.940Z,66.13
2019-03-23T19:05:23.881Z,71.47
2019-03-23T19:08:01.217Z,62.53
2019-03-23T19:10:38.539Z,62.83
2019-03-23T19:13:15.763Z,64.77
2019-03-23T19:15:53.063Z,75.33
2019-03-23T19:18:30.397Z,74.40
2019-03-23T19:21:10.340Z,73.13
2019-03-23T19:23:47.671Z,76.33
2019-03-23T19:26:25.009Z,77.93
2019-03-23T19:29:02.368Z,56.97
2019-03-23T19:31:39.649Z,49.77
2019-03-23T19:34:16.999Z,35.30
2019-03-23T19:36:54.219Z,31.27
2019-03-23T19:39:31.800Z,36.60
2019-03-23T19:42:16.133Z,38.10
2019-03-23T19:44:53.485Z,40.17
2019-03-23T19:47:30.848Z,44.83
2019-03-23T19:50:09.741Z,45.73
2019-03-23T19:52:50.818Z,43.90
2019-03-23T19:55:28.119Z,47.00
2019-03-23T19:58:05.465Z,57.53
2019-03-23T20:00:43.909Z,45.43
2019-03-23T20:03:21.163Z,50.50
2019-03-23T20:05:58.659Z,61.07
2019-03-23T20:08:36.226Z,49.73
2019-03-23T20:11:13.637Z,52.33
2019-03-23T20:13:58.488Z,50.67
2019-03-23T20:16:30.042Z,50.83
2019-03-23T20:19:07.418Z,55.20
2019-03-23T20:21:44.998Z,57.03
2019-03-23T20:24:22.564Z,61.13
2019-03-23T20:27:00.029Z,60.27
2019-03-23T20:29:37.354Z,47.27
2019-03-23T20:32:14.641Z,36.90
2019-03-23T20:34:52.009Z,35.73
2019-03-23T20:37:29.323Z,46.20
2019-03-23T20:40:07.170Z,48.17
2019-03-23T20:42:44.537Z,39.97
2019-03-23T20:45:27.093Z,42.80
2019-03-23T20:48:04.442Z,50.00
2019-03-23T20:50:41.871Z,50.77
2019-03-23T20:53:19.243Z,42.77
2019-03-23T20:55:56.472Z,41.57
2019-03-23T20:58:33.724Z,53.80
2019-03-23T21:01:11.065Z,43.93
2019-03-23T21:03:52.185Z,43.07
2019-03-23T21:06:29.497Z,45.97
2019-03-23T21:09:07.628Z,49.03
2019-03-23T21:11:44.960Z,50.50
2019-03-23T21:14:22.373Z,43.30
2019-03-23T21:16:59.793Z,48.23
2019-03-23T21:19:38.171Z,42.10
2019-03-23T21:22:15.546Z,52.23
2019-03-23T21:24:52.896Z,46.07
2019-03-23T21:27:30.084Z,51.73
2019-03-23T21:30:13.283Z,37.17
2019-03-23T21:32:50.574Z,39.23
2019-03-23T21:35:28.008Z,42.33
2019-03-23T21:38:05.300Z,40.17
2019-03-23T21:40:42.663Z,38.20
2019-03-23T21:43:19.993Z,34.60
2019-03-23T21:45:57.278Z,41.33
2019-03-23T21:48:35.938Z,36.17
2019-03-23T21:51:13.157Z,34.00
2019-03-23T21:53:50.473Z,35.33
2019-03-23T21:56:27.819Z,40.20
2019-03-23T21:59:05.094Z,34.93
2019-03-23T22:01:42.383Z,37.77
2019-03-23T22:04:19.707Z,38.13
2019-03-23T22:06:57.359Z,35.40
2019-03-23T22:09:34.956Z,32.80
2019-03-23T22:12:12.809Z,37.70
2019-03-23T22:14:50.198Z,34.67
2019-03-23T22:17:27.612Z,31.03
2019-03-23T22:20:08.261Z,29.57
2019-03-23T22:22:45.548Z,30.43
2019-03-23T22:25:22.805Z,29.00
2019-03-23T22:28:00.165Z,29.37
2019-03-23T22:30:37.508Z,30.57
2019-03-23T22:33:14.950Z,28.87
2019-03-23T22:35:52.276Z,28.77
2019-03-23T22:38:29.763Z,31.77
2019-03-23T22:41:07.082Z,27.43
2019-03-23T22:43:44.461Z,26.80
2019-03-23T22:46:21.796Z,28.90
2019-03-23T22:48:58.980Z,29.53
2019-03-23T22:51:36.248Z,26.60
2019-03-23T22:54:13.619Z,28.63
2019-03-23T22:56:50.812Z,27.67
2019-03-23T22:59:28.077Z,34.47
2019-03-23T23:02:05.491Z,28.03
2019-03-23T23:04:42.875Z,26.93
2019-03-23T23:07:21.112Z,28.30
2019-03-23T23:09:58.284Z,28.97
2019-03-23T23:12:35.644Z,28.10
2019-03-23T23:15:12.937Z,27.77
2019-03-23T23:17:50.293Z,30.67
2019-03-23T23:20:27.603Z,29.90
2019-03-23T23:23:05.234Z,30.17
2019-03-23T23:25:43.136Z,36.93
2019-03-23T23:28:20.500Z,33.63
2019-03-23T23:30:57.713Z,28.07
2019-03-23T23:33:35.039Z,32.33
2019-03-23T23:36:12.338Z,32.57
2019-03-23T23:38:49.770Z,31.70
2019-03-23T23:41:26.969Z,33.53
2019-03-23T23:44:04.567Z,33.43
2019-03-23T23:46:41.841Z,35.30
2019-03-23T23:49:19.171Z,31.90
2019-03-23T23:51:56.416Z,30.53
2019-03-23T23:54:33.777Z,33.07
2019-03-23T23:57:11.057Z,31.00
2019-03-23T23:59:48.307Z,32.50
